createdAt,value
2016-06-26T00:00:10.083Z,98.47
2016-06-26T00:01:09.477Z,98.57
2016-06-26T00:02:10.054Z,98.75
2016-06-26T00:03:10.039Z,98.57
2016-06-26T00:04:10.033Z,98.66
2016-06-26T00:05:10.015Z,98.38
2016-06-26T00:06:09.593Z,98.75
2016-06-26T00:07:09.987Z,98.85
2016-06-26T00:08:09.977Z,98.95
2016-06-26T00:09:09.966Z,98.85
2016-06-26T00:10:09.332Z,98.85
2016-06-26T00:11:09.951Z,98.95
2016-06-26T00:12:09.309Z,99.14
2016-06-26T00:13:09.295Z,98.66
2016-06-26T00:14:09.897Z,98.75
2016-06-26T00:15:09.881Z,98.95
2016-06-26T00:16:09.866Z,98.57
2016-06-26T00:17:09.246Z,98.47
2016-06-26T00:18:09.843Z,98.75
2016-06-26T00:19:09.831Z,99.04
2016-06-26T00:20:09.806Z,98.85
2016-06-26T00:21:09.799Z,98.57
2016-06-26T00:22:09.177Z,98.95
2016-06-26T00:23:09.773Z,98.57
2016-06-26T00:24:09.785Z,98.47
2016-06-26T00:25:09.745Z,98.75
2016-06-26T00:26:09.750Z,98.57
2016-06-26T00:27:09.723Z,98.99
2016-06-26T00:28:09.706Z,98.9
2016-06-26T00:29:09.705Z,98.95
2016-06-26T00:30:09.064Z,98.57
2016-06-26T00:31:09.044Z,98.66
2016-06-26T00:32:09.644Z,98.52
2016-06-26T00:33:09.649Z,98.71
2016-06-26T00:34:09.027Z,98.52
2016-06-26T00:35:09.003Z,98.71
2016-06-26T00:36:09.602Z,98.8
2016-06-26T00:37:08.978Z,98.71
2016-06-26T00:38:09.574Z,98.8
2016-06-26T00:39:09.567Z,98.52
2016-06-26T00:40:09.556Z,98.23
2016-06-26T00:41:08.913Z,98.8
2016-06-26T00:42:08.913Z,98.52
2016-06-26T00:43:08.895Z,98.9
2016-06-26T00:44:08.903Z,98.71
2016-06-26T00:45:09.486Z,98.99
2016-06-26T00:46:08.852Z,98.52
2016-06-26T00:47:09.452Z,98.52
2016-06-26T00:48:09.450Z,98.52
2016-06-26T00:49:09.478Z,98.23
2016-06-26T00:50:08.797Z,98.04
2016-06-26T00:51:08.844Z,97.94
2016-06-26T00:52:08.775Z,98.04
2016-06-26T00:53:09.374Z,97.94
2016-06-26T00:54:08.747Z,97.94
2016-06-26T00:55:09.362Z,98.04
2016-06-26T00:56:08.727Z,97.66
2016-06-26T00:57:09.319Z,97.85
2016-06-26T00:58:08.692Z,97.85
2016-06-26T00:59:08.681Z,98.04
2016-06-26T01:00:09.336Z,98.04
2016-06-26T01:01:08.657Z,98.04
2016-06-26T01:02:09.256Z,98.13
2016-06-26T01:03:09.269Z,98.04
2016-06-26T01:04:08.608Z,97.85
2016-06-26T01:05:09.204Z,98.04
2016-06-26T01:06:09.199Z,97.85
2016-06-26T01:07:09.190Z,97.75
2016-06-26T01:08:08.552Z,98.04
2016-06-26T01:09:09.182Z,98.04
2016-06-26T01:10:08.531Z,98.04
2016-06-26T01:11:08.515Z,98.23
2016-06-26T01:12:08.496Z,98.04
2016-06-26T01:13:08.498Z,97.94
2016-06-26T01:14:08.477Z,98.04
2016-06-26T01:15:08.468Z,98.04
2016-06-26T01:16:08.456Z,97.94
2016-06-26T01:17:08.439Z,98.04
2016-06-26T01:18:08.418Z,98.23
2016-06-26T01:19:09.021Z,97.08
2016-06-26T01:20:09.014Z,97.18
2016-06-26T01:21:08.992Z,97.08
2016-06-26T01:22:08.379Z,97.47
2016-06-26T01:23:08.983Z,98.04
2016-06-26T01:24:08.955Z,97.66
2016-06-26T01:25:08.325Z,98.23
2016-06-26T01:26:08.923Z,98.04
2016-06-26T01:27:08.911Z,98.04
2016-06-26T01:28:08.288Z,98.23
2016-06-26T01:29:08.888Z,98.13
2016-06-26T01:30:08.260Z,98.04
2016-06-26T01:31:08.246Z,97.85
2016-06-26T01:32:08.237Z,97.75
2016-06-26T01:33:08.847Z,97.85
2016-06-26T01:34:08.208Z,97.94
2016-06-26T01:35:08.844Z,97.8
2016-06-26T01:36:08.796Z,97.8
2016-06-26T01:37:08.774Z,98.04
2016-06-26T01:38:08.775Z,97.71
2016-06-26T01:39:08.133Z,97.52
2016-06-26T01:40:08.126Z,97.71
2016-06-26T01:41:08.722Z,97.89
2016-06-26T01:42:08.728Z,97.71
2016-06-26T01:43:08.688Z,97.89
2016-06-26T01:44:08.678Z,97.71
2016-06-26T01:45:08.105Z,97.8
2016-06-26T01:46:08.650Z,97.8
2016-06-26T01:47:08.651Z,98.08
2016-06-26T01:48:08.011Z,97.99
2016-06-26T01:49:08.636Z,97.8
2016-06-26T01:50:08.592Z,97.52
2016-06-26T01:51:08.603Z,97.89
2016-06-26T01:52:08.571Z,97.8
2016-06-26T01:53:08.558Z,98.08
2016-06-26T01:54:07.937Z,97.99
2016-06-26T01:55:07.923Z,97.99
2016-06-26T01:56:08.515Z,97.99
2016-06-26T01:57:07.892Z,97.89
2016-06-26T01:58:07.874Z,97.99
2016-06-26T01:59:08.479Z,97.89
2016-06-26T02:00:07.855Z,97.99
2016-06-26T02:01:08.452Z,98.37
2016-06-26T02:02:08.437Z,97.61
2016-06-26T02:03:07.813Z,98.47
2016-06-26T02:04:08.412Z,98.37
2016-06-26T02:05:08.399Z,98.37
2016-06-26T02:06:07.974Z,98.57
2016-06-26T02:07:07.748Z,98.28
2016-06-26T02:08:08.357Z,98.37
2016-06-26T02:09:07.723Z,98.28
2016-06-26T02:10:07.720Z,98.28
2016-06-26T02:11:07.690Z,98.57
2016-06-26T02:12:07.698Z,98.47
2016-06-26T02:13:08.288Z,98.66
2016-06-26T02:14:08.292Z,98.85
2016-06-26T02:15:08.259Z,98.47
2016-06-26T02:16:07.643Z,98.37
2016-06-26T02:17:08.229Z,98.66
2016-06-26T02:18:07.609Z,98.75
2016-06-26T02:19:08.209Z,98.66
2016-06-26T02:20:08.191Z,98.47
2016-06-26T02:21:08.182Z,98.37
2016-06-26T02:22:08.163Z,98.75
2016-06-26T02:23:08.158Z,98.47
2016-06-26T02:24:07.534Z,98.66
2016-06-26T02:25:08.121Z,98.37
2016-06-26T02:26:07.497Z,98.75
2016-06-26T02:27:08.090Z,98.85
2016-06-26T02:28:08.075Z,98.94
2016-06-26T02:29:07.449Z,98.47
2016-06-26T02:30:08.060Z,98.94
2016-06-26T02:31:08.039Z,98.85
2016-06-26T02:32:08.030Z,98.66
2016-06-26T02:33:07.410Z,98.85
2016-06-26T02:34:07.994Z,98.57
2016-06-26T02:35:07.377Z,99.14
2016-06-26T02:36:07.972Z,98.94
2016-06-26T02:37:07.959Z,99.23
2016-06-26T02:38:07.330Z,98.9
2016-06-26T02:39:07.923Z,99.08
2016-06-26T02:40:07.320Z,98.52
2016-06-26T02:41:07.926Z,98.8
2016-06-26T02:42:07.893Z,98.61
2016-06-26T02:43:07.880Z,98.66
2016-06-26T02:44:07.865Z,98.75
2016-06-26T02:45:07.850Z,99.14
2016-06-26T02:46:07.831Z,98.99
2016-06-26T02:47:07.205Z,98.99
2016-06-26T02:48:07.192Z,99.08
2016-06-26T02:49:07.796Z,98.9
2016-06-26T02:50:07.166Z,99.08
2016-06-26T02:51:07.152Z,98.61
2016-06-26T02:52:07.757Z,98.99
2016-06-26T02:53:07.740Z,98.99
2016-06-26T02:54:07.113Z,99.18
2016-06-26T02:55:07.112Z,98.61
2016-06-26T02:56:07.690Z,99.47
2016-06-26T02:57:07.067Z,99.08
2016-06-26T02:58:07.665Z,98.99
2016-06-26T02:59:07.045Z,99.47
2016-06-26T03:00:07.637Z,99.37
2016-06-26T03:01:07.012Z,99.47
2016-06-26T03:02:06.997Z,99.47
2016-06-26T03:03:06.982Z,99.28
2016-06-26T03:04:07.582Z,99.37
2016-06-26T03:05:07.576Z,99.28
2016-06-26T03:06:07.561Z,99.28
2016-06-26T03:07:07.551Z,99.57
2016-06-26T03:08:07.529Z,99.18
2016-06-26T03:09:07.514Z,99.28
2016-06-26T03:10:07.498Z,99.08
2016-06-26T03:11:07.494Z,99.28
2016-06-26T03:12:07.472Z,99.28
2016-06-26T03:13:07.470Z,99.18
2016-06-26T03:14:07.448Z,99.47
2016-06-26T03:15:07.443Z,99.18
2016-06-26T03:16:07.423Z,99.08
2016-06-26T03:17:07.411Z,99.57
2016-06-26T03:18:06.784Z,99.47
2016-06-26T03:19:06.765Z,99.37
2016-06-26T03:20:06.751Z,98.61
2016-06-26T03:21:07.341Z,99.37
2016-06-26T03:22:06.721Z,98.99
2016-06-26T03:23:07.322Z,99.08
2016-06-26T03:24:07.304Z,99.08
2016-06-26T03:25:07.290Z,98.52
2016-06-26T03:26:07.283Z,98.61
2016-06-26T03:27:07.258Z,98.9
2016-06-26T03:28:07.249Z,98.52
2016-06-26T03:29:06.625Z,98.52
2016-06-26T03:30:06.620Z,98.8
2016-06-26T03:31:06.593Z,98.8
2016-06-26T03:32:07.211Z,98.71
2016-06-26T03:33:07.185Z,98.8
2016-06-26T03:34:07.174Z,98.8
2016-06-26T03:35:07.157Z,98.8
2016-06-26T03:36:07.147Z,98.52
2016-06-26T03:37:06.516Z,98.71
2016-06-26T03:38:06.501Z,98.8
2016-06-26T03:39:06.480Z,98.71
2016-06-26T03:40:06.477Z,98.71
2016-06-26T03:41:07.062Z,98.8
2016-06-26T03:42:07.059Z,98.52
2016-06-26T03:43:07.050Z,98.61
2016-06-26T03:44:06.417Z,98.9
2016-06-26T03:45:06.411Z,98.99
2016-06-26T03:46:07.003Z,98.61
2016-06-26T03:47:06.372Z,98.71
2016-06-26T03:48:06.978Z,98.61
2016-06-26T03:49:06.338Z,98.99
2016-06-26T03:50:06.943Z,98.61
2016-06-26T03:51:06.927Z,98.61
2016-06-26T03:52:06.922Z,98.71
2016-06-26T03:53:06.290Z,98.99
2016-06-26T03:54:06.276Z,99.47
2016-06-26T03:55:06.311Z,99.66
2016-06-26T03:56:06.870Z,99.28
2016-06-26T03:57:06.841Z,99.66
2016-06-26T03:58:06.843Z,99.66
2016-06-26T03:59:06.208Z,99.66
2016-06-26T04:00:06.189Z,98.99
2016-06-26T04:01:06.791Z,99.47
2016-06-26T04:02:06.164Z,99.18
2016-06-26T04:03:06.159Z,99.57
2016-06-26T04:04:06.141Z,99.57
2016-06-26T04:05:06.735Z,99.37
2016-06-26T04:06:06.521Z,99.28
2016-06-26T04:07:06.094Z,99.37
2016-06-26T04:08:06.693Z,99.18
2016-06-26T04:09:06.680Z,99.37
2016-06-26T04:10:06.058Z,99.28
2016-06-26T04:11:06.650Z,99.37
2016-06-26T04:12:06.035Z,99.47
2016-06-26T04:13:06.021Z,99.08
2016-06-26T04:14:06.615Z,99.28
2016-06-26T04:15:05.984Z,99.28
2016-06-26T04:16:05.974Z,99.18
2016-06-26T04:17:05.959Z,99.37
2016-06-26T04:18:05.937Z,99.28
2016-06-26T04:19:05.940Z,99.57
2016-06-26T04:20:05.930Z,99.57
2016-06-26T04:21:05.922Z,99.28
2016-06-26T04:22:05.883Z,99.28
2016-06-26T04:23:05.873Z,99.37
2016-06-26T04:24:06.481Z,99.37
2016-06-26T04:25:05.850Z,99.37
2016-06-26T04:26:05.837Z,99.43
2016-06-26T04:27:06.437Z,99.71
2016-06-26T04:28:05.810Z,99.28
2016-06-26T04:29:05.793Z,99.52
2016-06-26T04:30:06.390Z,99.28
2016-06-26T04:31:05.766Z,99.33
2016-06-26T04:32:06.366Z,99.43
2016-06-26T04:33:05.734Z,99.47
2016-06-26T04:34:05.714Z,99.43
2016-06-26T04:35:05.719Z,99.52
2016-06-26T04:36:06.314Z,99.62
2016-06-26T04:37:05.690Z,99.52
2016-06-26T04:38:06.286Z,99.43
2016-06-26T04:39:05.658Z,99.33
2016-06-26T04:40:06.253Z,99.52
2016-06-26T04:41:05.617Z,99.43
2016-06-26T04:42:06.226Z,99.43
2016-06-26T04:43:05.600Z,99.43
2016-06-26T04:44:05.595Z,99.52
2016-06-26T04:45:06.195Z,99.52
2016-06-26T04:46:05.569Z,99.8
2016-06-26T04:47:05.551Z,99.14
2016-06-26T04:48:06.157Z,99.52
2016-06-26T04:49:05.533Z,99.71
2016-06-26T04:50:06.116Z,99.52
2016-06-26T04:51:05.493Z,99.99
2016-06-26T04:52:05.479Z,99.62
2016-06-26T04:53:06.092Z,99.23
2016-06-26T04:54:05.451Z,99.52
2016-06-26T04:55:06.065Z,99.62
2016-06-26T04:56:06.033Z,99.62
2016-06-26T04:57:05.415Z,99.33
2016-06-26T04:58:05.399Z,99.71
2016-06-26T04:59:05.387Z,99.14
2016-06-26T05:00:05.374Z,99.76
2016-06-26T05:01:05.967Z,99.66
2016-06-26T05:02:05.955Z,99.76
2016-06-26T05:03:05.952Z,99.76
2016-06-26T05:04:05.320Z,99.66
2016-06-26T05:05:05.923Z,99.57
2016-06-26T05:06:05.902Z,99.48
2016-06-26T05:07:05.888Z,99.66
2016-06-26T05:08:05.261Z,99.19
2016-06-26T05:09:05.876Z,99.19
2016-06-26T05:10:05.857Z,99.09
2016-06-26T05:11:05.227Z,98.8
2016-06-26T05:12:05.825Z,98.99
2016-06-26T05:13:05.201Z,98.9
2016-06-26T05:14:05.793Z,98.61
2016-06-26T05:15:05.781Z,98.8
2016-06-26T05:16:05.170Z,98.61
2016-06-26T05:17:05.149Z,98.52
2016-06-26T05:18:05.131Z,98.71
2016-06-26T05:19:05.125Z,98.71
2016-06-26T05:20:05.101Z,98.8
2016-06-26T05:21:05.707Z,98.71
2016-06-26T05:22:05.740Z,98.33
2016-06-26T05:23:05.065Z,98.52
2016-06-26T05:24:05.047Z,98.8
2016-06-26T05:25:05.035Z,98.52
2016-06-26T05:26:05.640Z,98.9
2016-06-26T05:27:05.025Z,98.57
2016-06-26T05:28:05.642Z,98.57
2016-06-26T05:29:05.597Z,98.85
2016-06-26T05:30:04.978Z,98.38
2016-06-26T05:31:04.986Z,97.8
2016-06-26T05:32:04.944Z,97.61
2016-06-26T05:33:04.935Z,97.13
2016-06-26T05:34:04.926Z,97.52
2016-06-26T05:35:05.517Z,97.71
2016-06-26T05:36:04.895Z,97.52
2016-06-26T05:37:04.896Z,96.84
2016-06-26T05:38:05.476Z,96.27
2016-06-26T05:39:05.467Z,96.08
2016-06-26T05:40:04.840Z,96.27
2016-06-26T05:41:04.835Z,96.03
2016-06-26T05:42:04.813Z,95.46
2016-06-26T05:43:04.794Z,95.36
2016-06-26T05:44:04.780Z,94.7
2016-06-26T05:45:04.779Z,94.74
2016-06-26T05:46:05.384Z,94.89
2016-06-26T05:47:04.758Z,95.12
2016-06-26T05:48:05.362Z,95.27
2016-06-26T05:49:04.724Z,95.27
2016-06-26T05:50:05.324Z,94.89
2016-06-26T05:51:04.701Z,94.6
2016-06-26T05:52:04.682Z,94.31
2016-06-26T05:53:05.286Z,93.64
2016-06-26T05:54:05.282Z,94.02
2016-06-26T05:55:04.657Z,93.45
2016-06-26T05:56:05.252Z,92.97
2016-06-26T05:57:04.622Z,93.55
2016-06-26T05:58:05.229Z,93.16
2016-06-26T05:59:04.595Z,92.88
2016-06-26T06:00:04.586Z,93.07
2016-06-26T06:01:05.186Z,93.26
2016-06-26T06:02:05.164Z,93.07
2016-06-26T06:03:05.157Z,93.26
2016-06-26T06:04:05.157Z,93.16
2016-06-26T06:05:05.130Z,93.35
2016-06-26T06:06:04.913Z,93.16
2016-06-26T06:07:04.491Z,93.07
2016-06-26T06:08:05.103Z,93.84
2016-06-26T06:09:05.075Z,92.88
2016-06-26T06:10:04.447Z,93.35
2016-06-26T06:11:05.051Z,93.35
2016-06-26T06:12:05.046Z,93.74
2016-06-26T06:13:05.021Z,93.07
2016-06-26T06:14:05.029Z,92.88
2016-06-26T06:15:05.008Z,92.59
2016-06-26T06:16:04.390Z,93.45
2016-06-26T06:17:05.025Z,92.88
2016-06-26T06:18:04.341Z,92.78
2016-06-26T06:19:04.967Z,93.16
2016-06-26T06:20:04.960Z,93.26
2016-06-26T06:21:04.922Z,92.63
2016-06-26T06:22:04.302Z,92.73
2016-06-26T06:23:04.305Z,92.25
2016-06-26T06:24:04.270Z,91.68
2016-06-26T06:25:04.277Z,91.01
2016-06-26T06:26:04.855Z,91.49
2016-06-26T06:27:04.231Z,90.15
2016-06-26T06:28:04.839Z,89.95
2016-06-26T06:29:04.205Z,88.61
2016-06-26T06:30:04.198Z,88.61
2016-06-26T06:31:04.239Z,87.84
2016-06-26T06:32:04.793Z,87.7
2016-06-26T06:33:04.162Z,87.03
2016-06-26T06:34:04.147Z,87.13
2016-06-26T06:35:04.148Z,87.9
2016-06-26T06:36:04.739Z,87.23
2016-06-26T06:37:04.113Z,87.23
2016-06-26T06:38:04.727Z,87.47
2016-06-26T06:39:04.096Z,86.99
2016-06-26T06:40:04.084Z,88.13
2016-06-26T06:41:04.063Z,87.95
2016-06-26T06:42:04.670Z,87.76
2016-06-26T06:43:04.665Z,88.23
2016-06-26T06:44:04.637Z,87.95
2016-06-26T06:45:04.009Z,87.27
2016-06-26T06:46:04.001Z,87.95
2016-06-26T06:47:04.622Z,87.95
2016-06-26T06:48:03.986Z,87.27
2016-06-26T06:49:03.976Z,87.76
2016-06-26T06:50:03.961Z,87.56
2016-06-26T06:51:03.953Z,87.32
2016-06-26T06:52:03.938Z,85.64
2016-06-26T06:53:04.545Z,86.74
2016-06-26T06:54:03.911Z,85.11
2016-06-26T06:55:03.903Z,83.91
2016-06-26T06:56:04.508Z,82.75
2016-06-26T06:57:04.502Z,81.84
2016-06-26T06:58:04.482Z,81.4
2016-06-26T06:59:03.875Z,81.1
2016-06-26T07:00:04.464Z,79.03
2016-06-26T07:01:03.839Z,78.75
2016-06-26T07:02:04.446Z,79.65
2016-06-26T07:03:03.841Z,79.17
2016-06-26T07:04:04.415Z,79.71
2016-06-26T07:05:04.414Z,80.96
2016-06-26T07:06:03.778Z,82.26
2016-06-26T07:07:03.766Z,82.16
2016-06-26T07:08:03.764Z,82.21
2016-06-26T07:09:04.370Z,82.6
2016-06-26T07:10:04.377Z,83.04
2016-06-26T07:11:03.727Z,82.46
2016-06-26T07:12:04.334Z,83.58
2016-06-26T07:13:03.711Z,83.09
2016-06-26T07:14:04.323Z,83.95
2016-06-26T07:15:03.677Z,83
2016-06-26T07:16:03.671Z,83.19
2016-06-26T07:17:04.286Z,83.05
2016-06-26T07:18:04.251Z,83.63
2016-06-26T07:19:03.635Z,83.72
2016-06-26T07:20:04.228Z,84.11
2016-06-26T07:21:03.621Z,84.78
2016-06-26T07:22:03.595Z,82.86
2016-06-26T07:23:04.199Z,83.34
2016-06-26T07:24:03.589Z,84.01
2016-06-26T07:25:04.190Z,82.96
2016-06-26T07:26:03.552Z,81.66
2016-06-26T07:27:04.157Z,81.51
2016-06-26T07:28:04.141Z,81.56
2016-06-26T07:29:03.532Z,81.08
2016-06-26T07:30:04.125Z,79.3
2016-06-26T07:31:04.112Z,79.28
2016-06-26T07:32:03.479Z,76.44
2016-06-26T07:33:04.097Z,74.75
2016-06-26T07:34:03.467Z,75.81
2016-06-26T07:35:03.463Z,77.21
2016-06-26T07:36:04.062Z,78.8
2016-06-26T07:37:03.455Z,78.7
2016-06-26T07:38:04.050Z,79.05
2016-06-26T07:39:03.436Z,79.72
2016-06-26T07:40:03.406Z,77.33
2016-06-26T07:41:04.019Z,75.96
2016-06-26T07:42:04.009Z,76.44
2016-06-26T07:43:03.993Z,74.62
2016-06-26T07:44:03.380Z,74.11
2016-06-26T07:45:03.985Z,73.03
2016-06-26T07:46:03.357Z,74.15
2016-06-26T07:47:03.963Z,73.86
2016-06-26T07:48:03.329Z,74.92
2016-06-26T07:49:03.345Z,75.65
2016-06-26T07:50:03.934Z,76.92
2016-06-26T07:51:03.919Z,77.84
2016-06-26T07:52:03.954Z,78.52
2016-06-26T07:53:03.910Z,78.96
2016-06-26T07:54:03.902Z,79.91
2016-06-26T07:55:03.354Z,79.72
2016-06-26T07:56:03.905Z,79.78
2016-06-26T07:57:03.880Z,80.07
2016-06-26T07:58:03.871Z,80.51
2016-06-26T07:59:03.852Z,80.32
2016-06-26T08:00:03.833Z,81.08
2016-06-26T08:01:03.833Z,81.27
2016-06-26T08:02:03.833Z,82
2016-06-26T08:03:03.200Z,82.23
2016-06-26T08:04:03.176Z,82.04
2016-06-26T08:05:03.784Z,82.32
2016-06-26T08:06:03.161Z,82.14
2016-06-26T08:07:03.153Z,82.9
2016-06-26T08:08:03.141Z,82.67
2016-06-26T08:09:03.746Z,82.96
2016-06-26T08:10:03.728Z,82.32
2016-06-26T08:11:03.127Z,80.83
2016-06-26T08:12:03.715Z,79.82
2016-06-26T08:13:03.083Z,77.08
2016-06-26T08:14:03.689Z,75.07
2016-06-26T08:15:03.071Z,74.44
2016-06-26T08:16:03.671Z,73.99
2016-06-26T08:17:03.663Z,75.31
2016-06-26T08:18:03.656Z,75.94
2016-06-26T08:19:03.640Z,77.06
2016-06-26T08:20:03.635Z,78.21
2016-06-26T08:21:03.031Z,78.36
2016-06-26T08:22:03.007Z,78.99
2016-06-26T08:23:03.608Z,77.08
2016-06-26T08:24:03.613Z,77.04
2016-06-26T08:25:02.973Z,78.47
2016-06-26T08:26:02.979Z,78.53
2016-06-26T08:27:02.952Z,77.86
2016-06-26T08:28:03.565Z,77.33
2016-06-26T08:29:02.933Z,75.6
2016-06-26T08:30:02.950Z,72.83
2016-06-26T08:31:03.536Z,70.78
2016-06-26T08:32:02.910Z,70.82
2016-06-26T08:33:02.919Z,68.58
2016-06-26T08:34:03.509Z,66.33
2016-06-26T08:35:02.897Z,65.47
2016-06-26T08:36:02.902Z,64.05
2016-06-26T08:37:03.500Z,67.04
2016-06-26T08:38:03.487Z,67.3
2016-06-26T08:39:03.477Z,69.06
2016-06-26T08:40:02.846Z,70.53
2016-06-26T08:41:02.841Z,71.14
2016-06-26T08:42:03.439Z,70.82
2016-06-26T08:43:02.839Z,72.71
2016-06-26T08:44:03.439Z,72.38
2016-06-26T08:45:03.419Z,72.83
2016-06-26T08:46:02.849Z,71.33
2016-06-26T08:47:02.794Z,72.86
2016-06-26T08:48:03.402Z,70.9
2016-06-26T08:49:02.782Z,69.44
2016-06-26T08:50:03.395Z,68.99
2016-06-26T08:51:02.771Z,67.26
2016-06-26T08:52:02.788Z,66.36
2016-06-26T08:53:02.747Z,68.29
2016-06-26T08:54:03.367Z,70.09
2016-06-26T08:55:02.782Z,70.15
2016-06-26T08:56:03.338Z,71.3
2016-06-26T08:57:03.526Z,70.78
2016-06-26T08:58:02.721Z,71.17
2016-06-26T08:59:02.709Z,70.98
2016-06-26T09:00:02.702Z,70.78
2016-06-26T09:01:02.686Z,71.26
2016-06-26T09:02:03.301Z,72
2016-06-26T09:03:02.669Z,72.96
2016-06-26T09:04:03.271Z,72.19
2016-06-26T09:05:02.662Z,73.06
2016-06-26T09:06:02.650Z,72.67
2016-06-26T09:07:03.262Z,71.91
2016-06-26T09:08:03.266Z,72.09
2016-06-26T09:09:03.241Z,72.25
2016-06-26T09:10:02.628Z,73.41
2016-06-26T09:11:03.242Z,73.31
2016-06-26T09:12:02.611Z,73.75
2016-06-26T09:13:03.207Z,74.71
2016-06-26T09:14:03.205Z,75.29
2016-06-26T09:15:02.584Z,74.55
2016-06-26T09:16:03.191Z,74.33
2016-06-26T09:17:03.180Z,74.52
2016-06-26T09:18:03.171Z,75.48
2016-06-26T09:19:03.163Z,73.85
2016-06-26T09:20:03.149Z,71.71
2016-06-26T09:21:02.528Z,70.53
2016-06-26T09:22:03.141Z,68.7
2016-06-26T09:23:03.130Z,68.74
2016-06-26T09:24:03.122Z,66.85
2016-06-26T09:25:03.102Z,67.65
2016-06-26T09:26:03.100Z,66.3
2016-06-26T09:27:03.094Z,63.34
2016-06-26T09:28:02.490Z,62.6
2016-06-26T09:29:03.093Z,61.38
2016-06-26T09:30:03.087Z,60.41
2016-06-26T09:31:02.468Z,60.13
2016-06-26T09:32:02.475Z,58.61
2016-06-26T09:33:02.459Z,60.61
2016-06-26T09:34:02.505Z,60.03
2016-06-26T09:35:03.073Z,60.73
2016-06-26T09:36:03.054Z,61.34
2016-06-26T09:37:03.113Z,60.22
2016-06-26T09:38:03.043Z,61.41
2016-06-26T09:39:03.041Z,62.34
2016-06-26T09:40:03.041Z,61.16
2016-06-26T09:41:03.057Z,59.93
2016-06-26T09:42:02.429Z,61.19
2016-06-26T09:43:03.042Z,60.96
2016-06-26T09:44:03.031Z,61.9
2016-06-26T09:45:03.030Z,62.99
2016-06-26T09:46:03.026Z,63.79
2016-06-26T09:47:03.036Z,65.98
2016-06-26T09:48:02.429Z,67.97
2016-06-26T09:49:03.005Z,67.58
2016-06-26T09:50:02.406Z,67.49
2016-06-26T09:51:02.403Z,68.6
2016-06-26T09:52:02.998Z,69.76
2016-06-26T09:53:02.378Z,69.57
2016-06-26T09:54:03.021Z,70.4
2016-06-26T09:55:02.982Z,69.06
2016-06-26T09:56:02.358Z,68.48
2016-06-26T09:57:02.967Z,68.38
2016-06-26T09:58:02.962Z,68.7
2016-06-26T09:59:02.347Z,68.29
2016-06-26T10:00:02.342Z,64.92
2016-06-26T10:01:02.346Z,67.36
2016-06-26T10:02:02.942Z,65.75
2016-06-26T10:03:02.940Z,65.72
2016-06-26T10:04:02.322Z,65.5
2016-06-26T10:05:02.329Z,66.62
2016-06-26T10:06:02.936Z,67.97
2016-06-26T10:07:02.507Z,68.51
2016-06-26T10:08:02.912Z,65.66
2016-06-26T10:09:02.290Z,64.37
2016-06-26T10:10:02.294Z,64.11
2016-06-26T10:11:02.891Z,63.37
2016-06-26T10:12:02.276Z,62.99
2016-06-26T10:13:02.886Z,64.15
2016-06-26T10:14:02.877Z,62.08
2016-06-26T10:15:02.905Z,59.96
2016-06-26T10:16:02.876Z,60.31
2016-06-26T10:17:02.865Z,61.83
2016-06-26T10:18:02.263Z,59.67
2016-06-26T10:19:02.255Z,60.35
2016-06-26T10:20:02.273Z,58.36
2016-06-26T10:21:02.249Z,58.29
2016-06-26T10:22:02.863Z,58.77
2016-06-26T10:23:02.231Z,58.61
2016-06-26T10:24:02.847Z,55.74
2016-06-26T10:25:02.907Z,56.54
2016-06-26T10:26:02.228Z,59.02
2016-06-26T10:27:02.833Z,60.31
2016-06-26T10:28:02.833Z,58.45
2016-06-26T10:29:02.829Z,58.84
2016-06-26T10:30:02.211Z,60.55
2016-06-26T10:31:02.834Z,62.6
2016-06-26T10:32:02.836Z,62.57
2016-06-26T10:33:02.824Z,63.82
2016-06-26T10:34:02.819Z,65.46
2016-06-26T10:35:02.815Z,66.49
2016-06-26T10:36:02.193Z,67.26
2016-06-26T10:37:02.797Z,68.8
2016-06-26T10:38:02.805Z,67.83
2016-06-26T10:39:02.174Z,67.07
2016-06-26T10:40:02.800Z,66.78
2016-06-26T10:41:02.198Z,66.97
2016-06-26T10:42:02.759Z,68.86
2016-06-26T10:43:02.758Z,70.5
2016-06-26T10:44:02.190Z,69.63
2016-06-26T10:45:02.141Z,69.24
2016-06-26T10:46:02.745Z,68.19
2016-06-26T10:47:02.756Z,68.48
2016-06-26T10:48:02.728Z,68.76
2016-06-26T10:49:02.109Z,67.99
2016-06-26T10:50:02.721Z,67.55
2016-06-26T10:51:02.107Z,64.92
2016-06-26T10:52:02.702Z,61.99
2016-06-26T10:53:02.718Z,62.51
2016-06-26T10:54:02.078Z,61.25
2016-06-26T10:55:02.075Z,62.76
2016-06-26T10:56:02.682Z,63.06
2016-06-26T10:57:02.686Z,64.95
2016-06-26T10:58:02.067Z,61.96
2016-06-26T10:59:02.673Z,59.2
2016-06-26T11:00:02.044Z,60.28
2016-06-26T11:01:02.642Z,60.99
2016-06-26T11:02:02.655Z,60.13
2016-06-26T11:03:02.021Z,59.23
2016-06-26T11:04:02.644Z,59.87
2016-06-26T11:05:02.015Z,61.13
2016-06-26T11:06:02.626Z,61.96
2016-06-26T11:07:02.625Z,61.68
2016-06-26T11:08:02.614Z,62.9
2016-06-26T11:09:02.619Z,63.09
2016-06-26T11:10:01.991Z,63.54
2016-06-26T11:11:02.609Z,65.17
2016-06-26T11:12:01.981Z,65.37
2016-06-26T11:13:02.617Z,63.18
2016-06-26T11:14:01.988Z,63.09
2016-06-26T11:15:02.577Z,65.3
2016-06-26T11:16:02.572Z,65.69
2016-06-26T11:17:01.943Z,66.55
2016-06-26T11:18:02.546Z,67.16
2016-06-26T11:19:02.547Z,64.08
2016-06-26T11:20:01.921Z,60.8
2016-06-26T11:21:01.910Z,61.16
2016-06-26T11:22:02.538Z,60.39
2016-06-26T11:23:01.952Z,60.97
2016-06-26T11:24:01.898Z,60.16
2016-06-26T11:25:01.895Z,60.64
2016-06-26T11:26:02.529Z,60.23
2016-06-26T11:27:01.911Z,61.1
2016-06-26T11:28:01.886Z,61.38
2016-06-26T11:29:02.481Z,61
2016-06-26T11:30:01.869Z,62.03
2016-06-26T11:31:02.071Z,63.09
2016-06-26T11:32:02.475Z,62.12
2016-06-26T11:33:01.850Z,61.16
2016-06-26T11:34:01.841Z,61.74
2016-06-26T11:35:02.446Z,62.51
2016-06-26T11:36:02.434Z,62.09
2016-06-26T11:37:02.437Z,63.09
2016-06-26T11:38:02.441Z,63.76
2016-06-26T11:39:01.819Z,61.65
2016-06-26T11:40:02.447Z,60.97
2016-06-26T11:41:02.404Z,62.51
2016-06-26T11:42:02.395Z,61.83
2016-06-26T11:43:02.386Z,60.32
2016-06-26T11:44:01.773Z,60.42
2016-06-26T11:45:01.764Z,62.63
2016-06-26T11:46:02.379Z,61.22
2016-06-26T11:47:02.362Z,61.32
2016-06-26T11:48:02.370Z,60.06
2016-06-26T11:49:02.362Z,59.71
2016-06-26T11:50:01.745Z,58.26
2016-06-26T11:51:01.727Z,58.26
2016-06-26T11:52:01.747Z,58.45
2016-06-26T11:53:01.723Z,58.72
2016-06-26T11:54:02.329Z,61.22
2016-06-26T11:55:01.711Z,61.51
2016-06-26T11:56:01.700Z,61
2016-06-26T11:57:02.300Z,62.35
2016-06-26T11:58:01.690Z,63.12
2016-06-26T11:59:01.688Z,61.8
2016-06-26T12:00:02.289Z,61.32
2016-06-26T12:01:02.290Z,59.32
2016-06-26T12:02:02.290Z,59.42
2016-06-26T12:03:02.280Z,59.13
2016-06-26T12:04:02.259Z,57.49
2016-06-26T12:05:02.255Z,60.28
2016-06-26T12:06:02.247Z,58.65
2016-06-26T12:07:01.836Z,57.14
2016-06-26T12:08:01.626Z,58.8
2016-06-26T12:09:01.640Z,59.19
2016-06-26T12:10:01.622Z,55.45
2016-06-26T12:11:02.243Z,54.61
2016-06-26T12:12:02.229Z,54.58
2016-06-26T12:13:02.218Z,54.29
2016-06-26T12:14:02.228Z,54.29
2016-06-26T12:15:02.224Z,53.64
2016-06-26T12:16:02.221Z,52.51
2016-06-26T12:17:01.595Z,51.73
2016-06-26T12:18:02.214Z,51.18
2016-06-26T12:19:02.202Z,52.14
2016-06-26T12:20:01.594Z,48.95
2016-06-26T12:21:02.196Z,49.65
2016-06-26T12:22:02.212Z,50.26
2016-06-26T12:23:01.581Z,49.87
2016-06-26T12:24:02.203Z,49.7
2016-06-26T12:25:01.600Z,48.44
2016-06-26T12:26:01.593Z,47.86
2016-06-26T12:27:01.585Z,46.6
2016-06-26T12:28:02.185Z,49.51
2016-06-26T12:29:01.588Z,49.61
2016-06-26T12:30:02.204Z,50.5
2016-06-26T12:31:02.215Z,46.75
2016-06-26T12:32:02.197Z,44.24
2016-06-26T12:33:01.591Z,44.85
2016-06-26T12:34:01.603Z,42.83
2016-06-26T12:35:02.202Z,44.19
2016-06-26T12:36:02.195Z,43.3
2016-06-26T12:37:02.198Z,46.24
2016-06-26T12:38:01.592Z,47.02
2016-06-26T12:39:01.610Z,46.72
2016-06-26T12:40:01.593Z,47.3
2016-06-26T12:41:01.599Z,49.7
2016-06-26T12:42:02.211Z,48.25
2016-06-26T12:43:02.210Z,46.97
2016-06-26T12:44:02.211Z,49.46
2016-06-26T12:45:02.255Z,46.75
2016-06-26T12:46:02.219Z,47.99
2016-06-26T12:47:02.225Z,49.73
2016-06-26T12:48:01.613Z,49.46
2016-06-26T12:49:01.612Z,50.98
2016-06-26T12:50:01.601Z,48.47
2016-06-26T12:51:02.206Z,46.44
2016-06-26T12:52:01.595Z,48.57
2016-06-26T12:53:02.213Z,49.44
2016-06-26T12:54:01.632Z,48.2
2016-06-26T12:55:01.589Z,47.74